F00

Jones Field Airport

Bonham, Texas, USA
METAR KF00 201135Z AUTO 33005KT 10SM CLR M06/M08 A3035 RMK AO2 T10601079
Observed Flight Rules
Jan-20 @ 11:35 UTC (16 minutes ago) Visual Flight Rules
Wind Visibility Clouds
330° at 5 knots 10 miles
  • Clear skies
Temperatures Readings
Current -6°C / 21°F
Dewpoint -8°C / 18°F
Humidity 86%
Altimeter 30.35" Hg
Pressure 1027.82 hPa
Elevation 188
METAR KF00 201135Z AUTO 33005KT 10SM CLR M06/M08 A3035 RMK AO2 T10601079
Observed Flight Rules
Jan-20 @ 11:35 UTC
(16 minutes ago)
VFR
Wind Visibility
330° at 5 knots 10 miles
Clouds
  • Clear skies
Temperature Dewpoint
-6°C / 21°F -8°C / 18°F
Humidity Altimeter Pressure
86% 30.35" Hg 1027.82 hPa